Angora, NE

6:00 PM MDT on September 01, 2015 (GMT -0600)
Bridgeport Ampride | | Change Station
CLOSE
Current Station
Personal Weather Station
Location: Bridgeport, NE
Elevation: 3671 ft
Nearby Weather Stations

Elev 3671 ft 41.67 °N, 103.10 °W | Updated 10 minutes ago

Clear
Clear
92.3 °F
Feels Like 89 °F
N
1.0
Wind Variable Wind from ESE
Gusts 3.0 mph

Today
High -- | Low -- °F
--% Chance of Precip.
Yesterday
High -- | Low -- °F
Precip. -- in
6:17 AM 7:26 PM
Waning Gibbous, 85% visible
Pressure 29.77 in
Visibility 10.0 miles
Clouds Clear
Heat Index 89 °F
Dew Point 48 °F
Humidity 22%
Rainfall 0.00 in
Snow Depth Not available.
UV 1 out of 12
Pollen 9.80 out of 12
Air Quality Not available.
Flu Activity Not available.
METAR KAIA 012353Z AUTO 24008KT 10SM CLR 33/04 A2990 RMK AO2 SLP080 T03280044 10350 20306 56003
Pressure 29.77 in
Visibility 10.0 miles
Clouds Clear
Heat Index 89 °F
Dew Point 48 °F
Humidity 22%
Rainfall 0.00 in
Snow Depth Not available.
UV 1 out of 12
Pollen 9.80 out of 12
Air Quality Not available.
Flu Activity Not available.
METAR KAIA 012353Z AUTO 24008KT 10SM CLR 33/04 A2990 RMK AO2 SLP080 T03280044 10350 20306 56003

10-Day Weather Forecast

×

Almanac

Astronomy

Sep. 01, 2015 Rise Set
Actual Time
Civil Twilight
Nautical Twilight
Astronomical Twilight
Moon
Length of Visible Light
Length of Day
Tomorrow will be .
, % of the Moon is Illuminated

Today's Extremes

State Highs State Lows

Community

WunderPhotos

Upload Photos

1,851,653 photos uploaded!

WunderBlogs® & News

Nearby

Air Quality

  Air Quality AQ Index Pollutant
Not available.

Snow Depth

Station Depth Elevation

Earthquake Activity

City Distance Mag. Time & Date
Minimum magnitude displayed is 2.5.

Coastal Water Temperatures

Place Temperature

Stations

Nearby Weather Stations

Station Location Temp. Windchill Dew Point Humidity Wind Precip. Elev Updated Type